Delta Virtual Airport Information Service

Osaka Kansai International Airport

ICAO: RJBB Country: Japan
Latitude: 34.4273 Longitude: 135.244
Latest Arrival : FDX6321251 (PANC-RJBB) Latest Departure : FDX6321251 (RJBB-ZSPD)


WX CaptureLIVE
Data provided by noaa.gov | Fetched at 09:22:42

METAR : RJBB 281400Z AUTO 14004KT 9999 NCD 21/13 Q1010 NOSIG

TAF : RJBB 281105Z 2812/2918 07005KT CAVOK BECMG 2900/2903 26006KT BECMG 2909/2912 04012KT


Runway Data for RJBB
Data provided by openaviationdata.com

Runway ID Mag Var Hdg Length Elevation Surface ILS Freq ILS Id ILS Slope
6 -7 57° 11483 ft 15 ft Asphalt 108.1 IKD 3
24 -7 237° 11483 ft 15 ft Asphalt 110.7 IKN 3

Osaka Kansai International Airport, Japan
Use only for reference purposes



Not for navigational purposes.